Time;durP1;ratioP1;P1;durP2;ratioP2;P2;SDS_P1;SDS_P2;PMS_P1;PMS_P2;Temp;Humidity;BMP_temperature;BMP_pressure;BME280_temperature;BME280_humidity;BME280_pressure;Samples;Min_cycle;Max_cycle;Signal;HPM_P1;HPM_P2
2021/01/21 00:02:03;;;;;;;2.33;1.30;;;;;;;19.25;46.88;98410.06;5037831;28;20021;-77
2021/01/21 00:04:28;;;;;;;2.20;1.40;;;;;;;19.22;46.75;98398.88;5059992;28;20125;-77
2021/01/21 00:06:54;;;;;;;2.75;1.80;;;;;;;19.25;46.86;98393.50;5059656;28;20085;-77
2021/01/21 00:09:20;;;;;;;1.60;1.10;;;;;;;19.24;46.91;98392.63;5066109;28;20112;-76
2021/01/21 00:11:45;;;;;;;2.78;1.20;;;;;;;19.23;47.01;98397.94;5087672;28;20029;-76
2021/01/21 00:14:11;;;;;;;1.83;1.17;;;;;;;19.22;46.88;98378.75;5062102;28;20028;-77
2021/01/21 00:16:36;;;;;;;2.08;1.05;;;;;;;19.21;46.95;98376.22;5060821;28;20040;-77
2021/01/21 00:19:01;;;;;;;2.17;1.20;;;;;;;19.19;47.01;98370.22;5062379;28;20032;-77
2021/01/21 00:21:27;;;;;;;1.98;1.52;;;;;;;19.19;46.85;98355.34;5056137;28;20032;-77
2021/01/21 00:23:52;;;;;;;3.30;1.30;;;;;;;19.20;46.98;98349.19;5053374;28;20062;-77
2021/01/21 00:26:17;;;;;;;1.55;1.13;;;;;;;19.19;46.89;98341.38;5057416;28;20024;-76
2021/01/21 00:28:43;;;;;;;1.40;1.05;;;;;;;19.13;46.98;98320.72;5057882;28;20024;-77
2021/01/21 00:31:08;;;;;;;2.25;1.45;;;;;;;19.16;46.92;98320.56;5029112;28;20028;-77
2021/01/21 00:33:34;;;;;;;2.42;1.30;;;;;;;19.16;46.80;98308.31;5048297;28;20040;-77
2021/01/21 00:35:59;;;;;;;2.72;1.08;;;;;;;19.17;47.03;98320.50;5038017;28;20105;-77
2021/01/21 00:38:24;;;;;;;1.75;1.20;;;;;;;19.19;46.77;98307.34;5070095;28;20066;-76
2021/01/21 00:40:50;;;;;;;1.70;1.10;;;;;;;19.15;46.85;98290.91;5056264;28;20028;-77
2021/01/21 00:43:15;;;;;;;1.88;1.10;;;;;;;19.15;47.07;98279.56;5054751;28;20035;-77
2021/01/21 00:45:40;;;;;;;1.63;1.20;;;;;;;19.14;46.99;98264.78;5023457;28;20111;-77
2021/01/21 00:48:06;;;;;;;2.38;1.30;;;;;;;19.14;47.09;98251.69;5072863;28;20036;-72
2021/01/21 00:50:31;;;;;;;1.00;0.88;;;;;;;19.09;46.96;98237.94;5050151;28;20028;-71
2021/01/21 00:52:59;;;;;;;3.10;1.13;;;;;;;19.13;47.22;98234.25;5034953;28;20174;-72
2021/01/21 00:55:24;;;;;;;1.95;1.35;;;;;;;19.08;47.05;98225.81;5060628;28;20049;-72
2021/01/21 00:57:50;;;;;;;3.67;1.38;;;;;;;19.08;46.77;98225.81;5058432;28;20390;-72
2021/01/21 01:00:15;;;;;;;1.65;1.23;;;;;;;19.11;46.90;98212.53;5039507;28;20056;-72
2021/01/21 01:02:41;;;;;;;1.20;0.90;;;;;;;19.10;46.90;98229.16;5037768;28;20170;-72
2021/01/21 01:05:07;;;;;;;2.30;1.42;;;;;;;19.12;46.87;98211.59;5077882;28;20052;-72
2021/01/21 01:07:33;;;;;;;2.25;1.30;;;;;;;19.09;47.23;98194.25;5048401;28;20039;-72
2021/01/21 01:09:58;;;;;;;1.50;1.05;;;;;;;19.02;47.04;98192.88;5062517;28;20025;-72
2021/01/21 01:12:23;;;;;;;1.40;1.00;;;;;;;19.06;47.04;98197.06;5031841;28;20029;-72
2021/01/21 01:14:49;;;;;;;1.65;0.70;;;;;;;19.06;46.98;98185.72;5024907;28;20121;-72
2021/01/21 01:17:14;;;;;;;3.08;1.48;;;;;;;19.07;47.08;98200.53;5061535;28;20048;-72
2021/01/21 01:19:39;;;;;;;1.67;1.20;;;;;;;19.06;47.15;98188.34;5051791;28;20368;-72
2021/01/21 01:22:05;;;;;;;1.70;1.00;;;;;;;19.03;46.98;98180.63;5051127;28;20090;-72
2021/01/21 01:24:30;;;;;;;1.60;1.05;;;;;;;19.00;46.97;98165.91;5020607;28;20028;-72
2021/01/21 01:26:56;;;;;;;1.75;1.30;;;;;;;19.05;47.25;98176.19;5022382;28;20036;-72
2021/01/21 01:29:21;;;;;;;2.85;1.38;;;;;;;19.04;46.99;98174.47;5047614;28;20062;-72
2021/01/21 01:31:47;;;;;;;1.20;0.90;;;;;;;19.02;46.93;98171.94;5061282;28;20036;-72
2021/01/21 01:34:12;;;;;;;1.15;0.82;;;;;;;19.04;47.14;98166.63;5049526;28;20040;-72
2021/01/21 01:36:38;;;;;;;1.90;1.15;;;;;;;19.01;47.36;98161.53;5021928;28;20536;-73
2021/01/21 01:39:03;;;;;;;1.75;1.00;;;;;;;19.03;47.22;98159.69;5079261;28;20032;-72
2021/01/21 01:41:29;;;;;;;2.17;1.27;;;;;;;19.03;47.34;98159.69;5058197;28;20033;-72
2021/01/21 01:43:55;;;;;;;1.33;1.02;;;;;;;19.00;47.33;98144.13;5072180;28;20070;-72
2021/01/21 01:46:22;;;;;;;2.00;1.40;;;;;;;19.00;47.54;98134.50;5075858;28;20032;-72
2021/01/21 01:48:48;;;;;;;2.97;1.13;;;;;;;19.00;47.53;98128.41;5073271;28;20032;-72
2021/01/21 01:51:13;;;;;;;1.65;1.00;;;;;;;18.97;47.36;98120.69;5073364;28;20029;-72
2021/01/21 01:53:38;;;;;;;1.50;1.08;;;;;;;18.98;47.41;98135.47;5050188;28;20029;-72
2021/01/21 01:56:04;;;;;;;3.10;1.27;;;;;;;18.99;47.37;98129.31;5085581;28;20139;-72
2021/01/21 01:58:31;;;;;;;1.73;1.20;;;;;;;18.99;47.30;98083.03;5077877;28;20061;-72
2021/01/21 02:00:58;;;;;;;1.48;1.00;;;;;;;18.98;47.38;98093.59;5045889;28;20071;-72
2021/01/21 02:03:24;;;;;;;1.23;0.88;;;;;;;18.92;47.51;98073.81;5075914;28;20474;-72
2021/01/21 02:05:49;;;;;;;1.70;0.85;;;;;;;18.97;47.47;98066.53;5082139;28;20031;-72
2021/01/21 02:08:20;;;;;;;1.80;1.00;;;;;;;18.96;47.39;98056.16;5048669;28;20486;-72
2021/01/21 02:10:46;;;;;;;1.98;1.05;;;;;;;18.94;47.52;98052.78;5082041;28;20025;-72
2021/01/21 02:13:32;;;;;;;1.38;1.00;;;;;;;18.96;47.65;98051.75;5076141;28;20028;-72
2021/01/21 02:16:17;;;;;;;1.05;0.90;;;;;;;18.95;47.50;98049.25;5066536;28;20490;-72
2021/01/21 02:18:56;;;;;;;1.35;1.08;;;;;;;18.92;47.65;98042.38;5075496;28;20481;-72
2021/01/21 02:21:40;;;;;;;1.63;1.08;;;;;;;18.95;47.43;98023.06;5072661;28;20104;-72
2021/01/21 02:24:29;;;;;;;1.98;1.15;;;;;;;18.94;47.60;98035.31;5053189;28;20485;-72
2021/01/21 02:26:58;;;;;;;2.65;1.30;;;;;;;18.91;47.44;98023.19;5073270;28;20031;-71
2021/01/21 02:29:37;;;;;;;1.30;1.10;;;;;;;18.85;47.52;98005.16;5065938;28;20048;-72
2021/01/21 02:32:05;;;;;;;1.90;1.50;;;;;;;18.93;47.47;98025.75;5060098;28;20032;-72
2021/01/21 02:34:53;;;;;;;1.23;0.90;;;;;;;18.92;47.54;98005.72;5073983;28;20021;-72
2021/01/21 02:37:26;;;;;;;0.60;0.60;;;;;;;18.86;47.71;97990.31;5055064;28;20024;-72
2021/01/21 02:40:03;;;;;;;1.52;0.88;;;;;;;18.88;47.46;97996.31;5064242;28;20027;-72
2021/01/21 02:42:29;;;;;;;1.23;0.77;;;;;;;18.90;47.59;97990.09;5069897;28;20032;-77
2021/01/21 02:44:54;;;;;;;1.85;0.75;;;;;;;18.89;47.74;97972.69;5058566;28;20117;-77
2021/01/21 02:47:22;;;;;;;2.58;0.90;;;;;;;18.87;47.67;98008.56;5042397;28;20028;-78
2021/01/21 02:49:51;;;;;;;1.20;0.90;;;;;;;18.88;47.81;97985.84;5056960;28;20031;-78
2021/01/21 02:52:19;;;;;;;1.27;0.93;;;;;;;18.88;47.58;97993.69;5067054;28;20020;-77
2021/01/21 02:54:53;;;;;;;1.48;1.08;;;;;;;18.88;47.76;97998.94;5074483;28;20041;-77
2021/01/21 02:57:40;;;;;;;1.52;0.95;;;;;;;18.84;47.48;97997.41;5072652;28;20051;-77
2021/01/21 03:00:11;;;;;;;1.30;1.00;;;;;;;18.85;47.70;98002.56;5074137;28;20056;-77
2021/01/21 03:02:44;;;;;;;1.30;1.00;;;;;;;18.86;47.81;98019.13;5061088;28;20077;-78
2021/01/21 03:05:12;;;;;;;1.37;0.90;;;;;;;18.85;47.74;97986.00;5080456;28;20542;-77
2021/01/21 03:07:37;;;;;;;2.13;1.20;;;;;;;18.83;47.65;97991.31;5074828;28;20482;-77
2021/01/21 03:10:07;;;;;;;1.52;0.95;;;;;;;18.83;47.97;97995.69;5058479;28;20046;-78
2021/01/21 03:12:33;;;;;;;1.25;0.82;;;;;;;18.82;47.77;97996.66;5072125;28;20040;-77
2021/01/21 03:14:58;;;;;;;1.13;0.98;;;;;;;18.85;47.91;97996.47;5078079;28;20077;-78
2021/01/21 03:17:25;;;;;;;1.88;1.27;;;;;;;18.82;47.89;97994.88;5076142;28;20036;-78
2021/01/21 03:19:51;;;;;;;1.20;0.90;;;;;;;18.82;47.86;97991.41;5062312;28;20028;-77
2021/01/21 03:22:17;;;;;;;1.08;0.75;;;;;;;18.79;47.85;97989.78;5088087;28;20028;-78
2021/01/21 03:24:42;;;;;;;2.03;1.00;;;;;;;18.80;47.81;98051.72;5061407;28;20031;-77
2021/01/21 03:27:08;;;;;;;2.05;0.95;;;;;;;18.82;47.80;98112.69;5054154;28;20020;-77
2021/01/21 03:29:33;;;;;;;1.80;0.93;;;;;;;18.83;48.04;98118.75;5057561;28;20063;-77
2021/01/21 03:31:59;;;;;;;1.63;1.02;;;;;;;18.81;48.16;98125.88;5039585;28;20058;-77
2021/01/21 03:34:24;;;;;;;1.73;1.13;;;;;;;18.82;48.13;98135.41;5038652;28;20032;-77
2021/01/21 03:36:50;;;;;;;2.30;1.10;;;;;;;18.78;48.13;98116.38;5054371;28;20032;-77
2021/01/21 03:39:15;;;;;;;1.50;0.98;;;;;;;18.79;48.06;98112.84;5071563;28;20051;-77
2021/01/21 03:41:40;;;;;;;1.65;0.93;;;;;;;18.77;48.10;98116.47;5071409;28;20032;-77
2021/01/21 03:44:06;;;;;;;2.05;1.00;;;;;;;18.75;48.17;98100.81;5063852;28;20036;-77
2021/01/21 03:46:32;;;;;;;1.40;0.90;;;;;;;18.76;48.28;98110.38;5057401;28;20097;-77
2021/01/21 03:48:57;;;;;;;4.70;1.27;;;;;;;18.73;48.10;98126.22;5070548;28;20036;-77
2021/01/21 03:51:23;;;;;;;1.48;0.90;;;;;;;18.75;48.04;98142.72;5039176;28;20032;-77
2021/01/21 03:53:48;;;;;;;1.70;0.90;;;;;;;18.77;47.90;98140.00;5076826;28;20115;-77
2021/01/21 03:56:13;;;;;;;1.40;1.00;;;;;;;18.73;48.12;98162.03;5064984;28;20134;-77
2021/01/21 03:58:39;;;;;;;1.73;1.00;;;;;;;18.72;48.16;98162.94;5051926;28;20370;-77
2021/01/21 04:01:04;;;;;;;2.85;1.27;;;;;;;18.74;48.10;98187.28;5073903;28;20063;-77
2021/01/21 04:03:31;;;;;;;1.70;0.95;;;;;;;18.72;48.09;98189.13;5053445;28;20040;-77
2021/01/21 04:05:57;;;;;;;1.77;0.75;;;;;;;18.70;48.00;98183.09;5056128;28;20039;-77
2021/01/21 04:08:22;;;;;;;1.83;1.02;;;;;;;18.71;48.03;98196.13;5041484;28;20040;-77
2021/01/21 04:10:49;;;;;;;1.63;1.00;;;;;;;18.70;48.19;98198.81;5036535;28;20028;-76
2021/01/21 04:13:14;;;;;;;3.45;1.40;;;;;;;18.68;47.76;98208.53;5055980;28;20029;-77
2021/01/21 04:15:40;;;;;;;3.10;1.48;;;;;;;18.68;47.85;98216.38;5058080;28;20082;-77
2021/01/21 04:18:05;;;;;;;2.33;1.05;;;;;;;18.70;48.18;98217.13;5043623;28;20033;-77
2021/01/21 04:20:30;;;;;;;1.83;1.17;;;;;;;18.70;48.09;98238.94;5039260;28;20112;-77
2021/01/21 04:22:57;;;;;;;1.70;1.27;;;;;;;18.69;48.02;98255.59;5039183;28;20386;-77
2021/01/21 04:25:23;;;;;;;1.30;0.80;;;;;;;18.68;48.04;98250.41;5019885;28;20364;-77
2021/01/21 04:27:49;;;;;;;2.78;1.30;;;;;;;18.65;48.00;98300.28;5049128;28;20162;-77
2021/01/21 04:30:15;;;;;;;2.03;1.00;;;;;;;18.64;48.27;98288.97;5053057;28;20063;-77
2021/01/21 04:32:41;;;;;;;1.35;0.70;;;;;;;18.64;48.03;98273.25;5039014;28;20506;-77
2021/01/21 04:35:07;;;;;;;1.77;0.75;;;;;;;18.66;48.00;98279.28;5021997;28;20127;-76
2021/01/21 04:37:32;;;;;;;3.15;1.30;;;;;;;18.65;48.15;98300.28;5060352;28;20043;-77
2021/01/21 04:39:58;;;;;;;1.85;1.00;;;;;;;18.64;48.21;98299.44;5041740;28;20478;-77
2021/01/21 04:42:24;;;;;;;1.20;0.90;;;;;;;18.64;48.06;98320.38;5050982;28;20036;-77
2021/01/21 04:44:50;;;;;;;4.32;1.23;;;;;;;18.64;48.15;98345.69;5057305;28;20079;-77
2021/01/21 04:47:16;;;;;;;4.60;1.40;;;;;;;18.59;47.93;98337.19;5076504;28;20423;-77
2021/01/21 04:49:42;;;;;;;2.55;1.02;;;;;;;18.62;48.03;98350.16;5055979;28;20032;-77
2021/01/21 04:52:09;;;;;;;2.85;1.40;;;;;;;18.63;48.10;98351.84;5039839;28;20071;-77
2021/01/21 04:54:54;;;;;;;2.92;1.17;;;;;;;18.60;47.88;98357.22;5055297;28;20028;-77
2021/01/21 04:57:37;;;;;;;5.03;1.40;;;;;;;18.62;48.12;98377.19;5049215;28;20513;-77
2021/01/21 05:00:05;;;;;;;4.25;1.50;;;;;;;18.61;47.74;98377.25;5052193;28;20059;-77
2021/01/21 05:02:31;;;;;;;4.03;1.10;;;;;;;18.60;47.73;98405.19;5092562;28;20032;-77
2021/01/21 05:04:57;;;;;;;2.63;1.30;;;;;;;18.60;47.98;98443.59;5037900;28;20115;-76
2021/01/21 05:07:23;;;;;;;2.72;1.25;;;;;;;18.55;47.60;98449.88;5022861;28;20082;-77
2021/01/21 05:09:48;;;;;;;2.53;1.50;;;;;;;18.59;48.07;98457.59;5064236;28;20470;-77
2021/01/21 05:12:14;;;;;;;4.38;1.83;;;;;;;18.55;47.76;98455.09;5024615;28;20029;-77
2021/01/21 05:14:39;;;;;;;3.03;1.30;;;;;;;18.55;47.96;98455.09;5061908;28;20044;-77
2021/01/21 05:17:05;;;;;;;2.25;1.05;;;;;;;18.55;47.66;98455.09;5025923;28;20105;-77
2021/01/21 05:19:34;;;;;;;3.00;1.40;;;;;;;18.54;47.87;98460.41;5056120;28;20028;-77
2021/01/21 05:22:00;;;;;;;3.22;1.13;;;;;;;18.52;48.03;98464.84;5075732;28;20131;-77
2021/01/21 05:24:26;;;;;;;3.25;1.25;;;;;;;18.37;47.67;98434.94;5065868;28;20037;-72
2021/01/21 05:26:54;;;;;;;4.05;1.52;;;;;;;18.51;47.78;98473.59;5048024;28;20028;-72
2021/01/21 05:29:19;;;;;;;2.10;1.00;;;;;;;18.49;47.91;98468.44;5074385;28;20028;-72
2021/01/21 05:31:48;;;;;;;4.15;1.10;;;;;;;18.51;47.96;98482.31;5055475;28;20073;-72
2021/01/21 05:34:17;;;;;;;2.67;1.33;;;;;;;18.51;47.82;98487.53;5063427;28;20093;-72
2021/01/21 05:36:44;;;;;;;3.85;1.30;;;;;;;18.51;47.57;98500.63;5064906;28;20040;-72
2021/01/21 05:39:11;;;;;;;1.33;0.98;;;;;;;18.49;47.27;98491.97;5065489;28;20348;-72
2021/01/21 05:41:37;;;;;;;2.40;1.52;;;;;;;18.48;47.28;98512.97;5026189;28;20393;-72
2021/01/21 05:44:09;;;;;;;2.75;1.63;;;;;;;18.51;47.55;98520.72;5059716;28;20031;-72
2021/01/21 05:46:35;;;;;;;4.80;1.55;;;;;;;18.57;47.34;98534.38;5053201;28;20028;-72
2021/01/21 05:49:02;;;;;;;2.03;0.85;;;;;;;18.58;47.05;98522.19;5068431;28;20020;-72
2021/01/21 05:51:31;;;;;;;2.42;1.25;;;;;;;18.57;47.22;98533.53;5038863;28;20245;-72
2021/01/21 05:53:56;;;;;;;3.42;1.10;;;;;;;18.63;47.06;98546.41;5060631;28;20474;-72
2021/01/21 05:56:25;;;;;;;3.28;1.33;;;;;;;18.63;47.18;98548.16;5039876;28;20049;-72
2021/01/21 05:58:54;;;;;;;4.95;1.20;;;;;;;18.62;47.26;98559.56;5043107;28;20109;-72
2021/01/21 06:01:24;;;;;;;2.05;1.02;;;;;;;18.59;47.05;98557.06;5041676;28;20382;-72
2021/01/21 06:03:49;;;;;;;4.20;1.95;;;;;;;18.57;47.14;98567.56;5078014;28;20052;-72
2021/01/21 06:06:15;;;;;;;2.97;1.60;;;;;;;18.51;47.19;98560.81;5038278;28;20563;-72
2021/01/21 06:08:44;;;;;;;3.40;1.40;;;;;;;18.52;47.15;98569.53;5053297;28;20028;-72
2021/01/21 06:11:12;;;;;;;3.45;1.42;;;;;;;18.55;47.01;98575.50;5025515;28;20103;-72
2021/01/21 06:13:42;;;;;;;4.15;1.90;;;;;;;18.57;47.01;98583.25;5077721;28;20575;-73
2021/01/21 06:16:10;;;;;;;3.08;1.67;;;;;;;18.64;47.21;98597.84;5077082;28;20414;-72
2021/01/21 06:18:37;;;;;;;3.22;1.50;;;;;;;18.69;47.08;98609.00;5071182;28;20038;-72
2021/01/21 06:21:04;;;;;;;4.47;1.80;;;;;;;18.81;46.81;98618.97;5044708;28;20037;-72
2021/01/21 06:23:31;;;;;;;4.75;1.70;;;;;;;18.88;46.64;98623.00;5040437;28;20478;-73
2021/01/21 06:25:58;;;;;;;4.93;1.90;;;;;;;18.90;46.82;98629.03;5073175;28;20024;-72
2021/01/21 06:28:25;;;;;;;7.07;2.33;;;;;;;18.98;46.83;98641.81;5054493;28;20037;-71
2021/01/21 06:30:53;;;;;;;6.57;2.33;;;;;;;19.03;46.85;98639.00;5065402;28;20421;-71
2021/01/21 06:33:26;;;;;;;5.00;2.17;;;;;;;19.05;46.74;98647.66;5041276;28;20031;-71
2021/01/21 06:35:55;;;;;;;7.35;1.33;;;;;;;19.04;46.79;98661.66;5071423;28;20020;-78
2021/01/21 06:38:24;;;;;;;7.10;2.00;;;;;;;19.10;46.69;98657.00;5057210;28;20566;-76
2021/01/21 06:40:53;;;;;;;3.53;2.00;;;;;;;19.13;46.32;98666.50;5040588;28;20553;-77
2021/01/21 06:43:23;;;;;;;3.70;1.58;;;;;;;19.12;46.54;98672.66;5071481;28;20052;-77
2021/01/21 06:45:51;;;;;;;5.95;1.92;;;;;;;19.12;46.74;98685.75;5075213;28;20070;-77
2021/01/21 06:48:17;;;;;;;2.95;1.63;;;;;;;19.21;46.56;98674.94;5038254;28;20035;-76
2021/01/21 06:50:44;;;;;;;2.55;1.52;;;;;;;19.19;46.29;98676.75;5055056;28;20474;-73
2021/01/21 06:53:10;;;;;;;3.72;1.73;;;;;;;19.16;46.44;98684.72;5048204;28;20028;-72
2021/01/21 06:55:41;;;;;;;5.53;2.17;;;;;;;19.18;46.42;98696.88;5056385;28;20048;-72
2021/01/21 06:58:07;;;;;;;4.70;1.98;;;;;;;19.27;46.34;98712.19;5045967;28;20017;-73
2021/01/21 07:00:41;;;;;;;2.13;1.30;;;;;;;19.24;46.40;98714.94;5055021;28;20039;-73
2021/01/21 07:03:26;;;;;;;4.53;2.65;;;;;;;19.20;46.45;98717.75;5056209;28;20016;-71
2021/01/21 07:06:02;;;;;;;4.88;2.30;;;;;;;19.28;46.32;98732.25;5075611;28;20084;-72
2021/01/21 07:08:28;;;;;;;2.38;1.10;;;;;;;19.28;46.23;98729.63;5077020;28;20032;-72
2021/01/21 07:10:59;;;;;;;4.78;1.58;;;;;;;19.23;46.49;98736.81;5058329;28;20382;-72
2021/01/21 07:13:27;;;;;;;3.47;1.73;;;;;;;19.31;46.61;98735.66;5067330;28;20024;-71
2021/01/21 07:16:01;;;;;;;3.42;1.70;;;;;;;19.36;46.40;98755.50;5073024;28;20035;-72
2021/01/21 07:18:37;;;;;;;7.35;1.48;;;;;;;19.32;46.38;98755.72;5034159;28;20024;-72
2021/01/21 07:21:06;;;;;;;6.07;1.83;;;;;;;19.37;46.67;98764.22;5034042;28;20032;-72
2021/01/21 07:23:43;;;;;;;3.75;1.50;;;;;;;19.43;46.43;98759.59;5014416;28;20040;-72
2021/01/21 07:26:24;;;;;;;3.63;1.70;;;;;;;19.40;46.41;98753.59;5069947;28;20055;-72
2021/01/21 07:28:58;;;;;;;4.72;2.00;;;;;;;19.35;46.58;98772.13;5064295;28;20021;-72
2021/01/21 07:31:47;;;;;;;4.70;2.03;;;;;;;19.42;46.48;98770.13;5065072;28;20020;-71
2021/01/21 07:34:24;;;;;;;5.53;1.50;;;;;;;19.39;46.36;98784.22;5056427;28;20033;-78
2021/01/21 07:37:17;;;;;;;5.68;2.40;;;;;;;19.36;46.54;98784.31;5075871;28;20054;-77
2021/01/21 07:39:47;;;;;;;2.83;1.40;;;;;;;19.44;46.37;98776.16;5072219;28;20056;-78
2021/01/21 07:42:13;;;;;;;2.75;1.55;;;;;;;19.42;46.26;98791.09;5041089;28;20341;-78
2021/01/21 07:44:58;;;;;;;3.35;1.40;;;;;;;19.37;46.45;98803.53;5067839;28;20063;-78
2021/01/21 07:47:31;;;;;;;2.80;1.48;;;;;;;19.46;46.40;98790.06;5058473;28;20028;-78
2021/01/21 07:50:19;;;;;;;2.53;1.40;;;;;;;19.48;46.34;98809.19;5053197;28;20021;-77
2021/01/21 07:52:49;;;;;;;3.35;1.40;;;;;;;19.40;46.18;98795.53;5053246;28;20039;-78
2021/01/21 07:55:24;;;;;;;2.22;1.30;;;;;;;19.43;46.12;98805.91;5077309;28;20082;-78
2021/01/21 07:57:49;;;;;;;2.42;1.25;;;;;;;19.49;46.15;98810.91;5067420;28;20032;-77
2021/01/21 08:00:15;;;;;;;5.50;1.90;;;;;;;19.42;46.05;98806.81;5072661;28;20113;-78
2021/01/21 08:02:49;;;;;;;4.90;1.20;;;;;;;19.45;46.20;98815.44;5065999;28;20067;-78
2021/01/21 08:05:18;;;;;;;3.40;1.20;;;;;;;19.53;46.19;98818.59;5075753;28;20016;-77
2021/01/21 08:07:55;;;;;;;2.17;1.15;;;;;;;19.47;45.90;98826.72;5043021;28;20556;-78
2021/01/21 08:10:33;;;;;;;5.50;1.45;;;;;;;19.45;46.15;98823.28;5063507;28;20087;-77
2021/01/21 08:13:04;;;;;;;3.60;1.40;;;;;;;19.55;46.25;98829.88;5054107;28;20025;-77
2021/01/21 08:15:30;;;;;;;2.75;1.38;;;;;;;19.52;45.87;98824.75;5051743;28;20021;-77
2021/01/21 08:17:57;;;;;;;2.20;1.35;;;;;;;19.44;45.91;98810.25;5056698;28;20044;-77
2021/01/21 08:20:34;;;;;;;2.70;1.20;;;;;;;19.55;46.16;98813.31;5073361;28;20088;-78
2021/01/21 08:23:02;;;;;;;2.08;0.98;;;;;;;19.54;45.90;98820.31;5043425;28;20359;-72
2021/01/21 08:25:39;;;;;;;3.05;1.15;;;;;;;19.46;45.92;98829.38;5059130;28;20333;-72
2021/01/21 08:28:04;;;;;;;2.85;1.10;;;;;;;19.53;46.06;98821.22;5062172;28;20126;-72
2021/01/21 08:30:32;;;;;;;1.35;0.93;;;;;;;19.55;46.03;98822.03;5049046;28;20091;-72
2021/01/21 08:33:03;;;;;;;4.72;1.42;;;;;;;19.52;45.77;98826.53;5032500;28;20031;-78
2021/01/21 08:35:33;;;;;;;3.20;1.08;;;;;;;19.53;46.07;98830.84;5056127;28;20025;-72
2021/01/21 08:37:59;;;;;;;1.33;0.73;;;;;;;19.58;45.91;98839.41;5070891;28;20032;-72
2021/01/21 08:40:27;;;;;;;2.67;1.13;;;;;;;19.53;45.76;98829.09;5042987;28;20032;-72
2021/01/21 08:42:54;;;;;;;2.40;1.20;;;;;;;19.50;45.86;98829.22;5039054;28;20506;-72
2021/01/21 08:45:25;;;;;;;3.33;1.10;;;;;;;19.59;45.81;98828.00;5050215;28;20074;-77
2021/01/21 08:47:50;;;;;;;2.20;1.20;;;;;;;19.56;45.85;98828.13;5058331;28;20031;-77
2021/01/21 08:50:18;;;;;;;1.98;0.98;;;;;;;19.47;45.63;98831.94;5045633;28;20100;-78
2021/01/21 08:53:04;;;;;;;2.83;0.93;;;;;;;19.44;45.93;98849.56;5048471;28;20483;-78
2021/01/21 08:55:46;;;;;;;1.45;0.90;;;;;;;19.38;46.15;98828.81;5069098;28;20052;-78
2021/01/21 08:58:14;;;;;;;2.47;1.13;;;;;;;19.33;45.98;98825.56;5056770;28;20036;-78
2021/01/21 09:00:58;;;;;;;2.05;0.98;;;;;;;19.27;46.01;98826.63;5073326;28;20034;-78
2021/01/21 09:03:36;;;;;;;1.35;0.90;;;;;;;19.25;46.22;98829.31;5072295;28;20028;-78
2021/01/21 09:06:03;;;;;;;2.88;1.20;;;;;;;19.24;46.49;98829.38;5054148;28;20016;-78
2021/01/21 09:08:29;;;;;;;2.67;1.02;;;;;;;19.20;46.50;98835.66;5071570;28;20067;-78
2021/01/21 09:10:58;;;;;;;1.98;1.20;;;;;;;19.18;46.29;98835.72;5040160;28;20542;-78
2021/01/21 09:13:23;;;;;;;3.55;1.45;;;;;;;19.18;46.06;98827.00;5037790;28;20043;-78
2021/01/21 09:15:58;;;;;;;2.22;1.00;;;;;;;19.20;46.15;98838.28;5071411;28;20032;-77
2021/01/21 09:18:27;;;;;;;1.60;0.70;;;;;;;19.20;46.17;98835.66;5099030;28;20031;-78
2021/01/21 09:21:17;;;;;;;5.90;1.88;;;;;;;19.13;46.10;98842.03;5072300;28;20107;-72
2021/01/21 09:23:43;;;;;;;3.92;1.20;;;;;;;19.21;46.11;98835.59;5086763;28;20405;-72
2021/01/21 09:26:13;;;;;;;2.63;1.52;;;;;;;19.27;46.05;98837.97;5080511;28;20070;-73
2021/01/21 09:28:55;;;;;;;2.78;1.25;;;;;;;19.33;45.77;98846.53;5056008;28;20025;-72
2021/01/21 09:31:22;;;;;;;2.58;1.20;;;;;;;19.35;45.83;98849.91;5091828;28;20482;-72
2021/01/21 09:33:50;;;;;;;3.05;1.20;;;;;;;19.42;45.54;98846.13;5087817;28;20077;-71
2021/01/21 09:36:15;;;;;;;3.65;1.42;;;;;;;19.42;45.60;98851.38;5067949;28;20048;-71
2021/01/21 09:38:41;;;;;;;2.63;1.25;;;;;;;19.42;45.64;98861.88;5072779;28;20071;-72
2021/01/21 09:41:06;;;;;;;3.70;1.27;;;;;;;19.51;45.54;98869.38;5028506;28;20082;-72
2021/01/21 09:43:32;;;;;;;1.60;0.90;;;;;;;19.49;45.28;98864.19;5066098;28;20433;-71
2021/01/21 09:45:57;;;;;;;4.10;1.30;;;;;;;19.46;45.12;98869.56;5057424;28;20102;-71
2021/01/21 09:48:24;;;;;;;1.98;1.00;;;;;;;19.48;45.30;98872.94;5039698;28;20119;-71
2021/01/21 09:50:52;;;;;;;1.95;1.00;;;;;;;19.56;45.14;98870.91;5066523;28;20370;-71
2021/01/21 09:53:18;;;;;;;3.60;1.20;;;;;;;19.52;45.14;98871.09;5075209;28;20047;-72
2021/01/21 09:55:43;;;;;;;1.55;0.85;;;;;;;19.51;45.17;98874.63;5024294;28;20491;-71
2021/01/21 09:58:10;;;;;;;3.33;1.05;;;;;;;19.49;45.15;98858.97;5026383;28;20029;-71
2021/01/21 10:00:35;;;;;;;1.25;0.60;;;;;;;19.61;45.04;98876.81;5038895;28;20462;-72
2021/01/21 10:03:01;;;;;;;1.63;0.90;;;;;;;19.56;45.20;98865.69;5022507;28;20040;-71
2021/01/21 10:05:26;;;;;;;2.60;1.05;;;;;;;19.60;45.28;98864.63;5039724;28;20021;-71
2021/01/21 10:07:51;;;;;;;3.05;1.00;;;;;;;19.63;45.03;98851.38;5079170;28;20036;-71
2021/01/21 10:10:17;;;;;;;2.35;0.90;;;;;;;19.61;44.94;98863.69;5046613;28;20040;-72
2021/01/21 10:12:42;;;;;;;2.05;0.80;;;;;;;19.62;45.13;98868.03;5034350;28;20044;-71
2021/01/21 10:15:08;;;;;;;2.92;0.93;;;;;;;19.65;44.93;98861.81;5044319;28;20075;-71
2021/01/21 10:17:34;;;;;;;2.08;0.80;;;;;;;19.64;44.87;98854.88;5031855;28;20029;-72
2021/01/21 10:19:59;;;;;;;2.75;1.10;;;;;;;19.60;45.18;98856.75;5079466;28;20048;-72
2021/01/21 10:22:24;;;;;;;2.28;0.40;;;;;;;19.70;45.04;98861.63;5067913;28;20060;-71
2021/01/21 10:24:50;;;;;;;3.83;1.02;;;;;;;19.72;45.18;98875.53;5050608;28;20040;-72
2021/01/21 10:27:15;;;;;;;3.60;1.05;;;;;;;19.62;45.21;98873.28;5071412;28;20099;-71
2021/01/21 10:29:41;;;;;;;2.78;1.02;;;;;;;19.62;45.32;98882.91;5047021;28;20032;-71
2021/01/21 10:32:06;;;;;;;1.95;1.10;;;;;;;19.65;45.09;98879.31;5048812;28;20021;-71
2021/01/21 10:34:32;;;;;;;1.60;0.98;;;;;;;19.62;45.24;98869.81;5046417;28;20498;-71
2021/01/21 10:36:57;;;;;;;1.70;0.73;;;;;;;19.62;45.33;98875.03;5044954;28;20012;-71
2021/01/21 10:39:22;;;;;;;2.05;0.98;;;;;;;19.66;45.21;98881.03;5070933;28;20028;-71
2021/01/21 10:41:49;;;;;;;2.13;0.88;;;;;;;19.64;45.29;98881.09;5057870;28;20047;-78
2021/01/21 10:44:15;;;;;;;1.58;0.80;;;;;;;19.65;45.09;98871.44;5075736;28;20030;-78
2021/01/21 10:46:41;;;;;;;1.70;0.80;;;;;;;19.68;45.20;98879.19;5058651;28;20044;-78
2021/01/21 10:49:07;;;;;;;2.25;0.82;;;;;;;19.69;45.09;98862.56;5051403;28;20401;-78
2021/01/21 10:51:34;;;;;;;1.80;0.98;;;;;;;19.66;45.04;98873.16;5052697;28;20040;-78
2021/01/21 10:53:59;;;;;;;2.20;0.80;;;;;;;19.69;45.13;98881.75;5059275;28;20467;-79
2021/01/21 10:56:24;;;;;;;2.15;0.82;;;;;;;19.68;45.04;98879.19;5057228;28;20076;-72
2021/01/21 10:58:50;;;;;;;2.10;1.35;;;;;;;19.67;45.12;98870.47;5021801;28;20033;-71
2021/01/21 11:01:15;;;;;;;2.97;1.02;;;;;;;19.67;44.97;98873.09;5069109;28;20459;-71
2021/01/21 11:03:40;;;;;;;1.95;0.80;;;;;;;19.73;44.93;98878.09;5047759;28;20063;-71
2021/01/21 11:06:06;;;;;;;2.00;1.15;;;;;;;19.71;44.98;98868.59;5036647;28;20059;-71
2021/01/21 11:08:31;;;;;;;1.90;0.90;;;;;;;19.72;45.04;98862.44;5044292;28;20058;-71
2021/01/21 11:10:57;;;;;;;1.30;0.60;;;;;;;19.73;44.96;98862.38;5024514;28;20433;-71
2021/01/21 11:13:22;;;;;;;1.73;0.80;;;;;;;19.74;44.82;98861.44;5048207;28;20032;-71
2021/01/21 11:15:48;;;;;;;1.80;0.68;;;;;;;19.67;44.74;98862.63;5028976;28;20025;-71
2021/01/21 11:18:14;;;;;;;0.85;0.55;;;;;;;19.73;44.88;98864.16;5055434;28;20037;-78
2021/01/21 11:20:40;;;;;;;1.48;0.60;;;;;;;19.74;44.89;98864.06;5056936;28;20036;-78
2021/01/21 11:23:07;;;;;;;1.67;0.63;;;;;;;19.72;44.89;98870.31;5060464;28;20032;-78
2021/01/21 11:25:33;;;;;;;1.65;0.80;;;;;;;19.73;45.04;98869.38;5057791;28;20055;-71
2021/01/21 11:27:58;;;;;;;2.33;0.73;;;;;;;19.76;44.80;98859.59;5052636;28;20052;-71
2021/01/21 11:30:24;;;;;;;1.65;0.57;;;;;;;19.71;44.97;98863.34;5028640;28;20028;-71
2021/01/21 11:32:50;;;;;;;1.85;0.88;;;;;;;19.71;44.95;98866.81;5044593;28;20115;-78
2021/01/21 11:35:16;;;;;;;2.30;1.10;;;;;;;19.77;44.69;98860.47;5039868;28;20540;-78
2021/01/21 11:37:43;;;;;;;1.45;0.93;;;;;;;19.73;44.76;98856.28;5074493;28;20033;-78
2021/01/21 11:40:09;;;;;;;1.27;0.60;;;;;;;19.75;44.71;98864.91;5025183;28;20120;-78